sensor_id;sensor_type;location;lat;lon;timestamp;P1;durP1;ratioP1;P2;durP2;ratioP2
29422;SDS011;16399;51.686;8.684;2022-12-29T00:01:51;1.98;;;1.00;;
29422;SDS011;16399;51.686;8.684;2022-12-29T00:04:53;1.37;;;0.70;;
29422;SDS011;16399;51.686;8.684;2022-12-29T00:07:55;1.70;;;0.78;;
29422;SDS011;16399;51.686;8.684;2022-12-29T00:10:57;2.17;;;0.80;;
29422;SDS011;16399;51.686;8.684;2022-12-29T00:14:00;2.55;;;0.70;;
29422;SDS011;16399;51.686;8.684;2022-12-29T00:17:20;2.42;;;0.80;;
29422;SDS011;16399;51.686;8.684;2022-12-29T00:20:22;3.52;;;1.50;;
29422;SDS011;16399;51.686;8.684;2022-12-29T00:23:42;2.05;;;0.72;;
29422;SDS011;16399;51.686;8.684;2022-12-29T00:30:26;2.65;;;0.80;;
29422;SDS011;16399;51.686;8.684;2022-12-29T00:33:46;1.55;;;0.70;;
29422;SDS011;16399;51.686;8.684;2022-12-29T00:37:06;1.25;;;0.60;;
29422;SDS011;16399;51.686;8.684;2022-12-29T00:40:08;1.70;;;0.70;;
29422;SDS011;16399;51.686;8.684;2022-12-29T00:43:29;1.45;;;0.62;;
29422;SDS011;16399;51.686;8.684;2022-12-29T00:46:49;2.50;;;0.60;;
29422;SDS011;16399;51.686;8.684;2022-12-29T00:49:51;3.37;;;0.53;;
29422;SDS011;16399;51.686;8.684;2022-12-29T00:52:54;1.95;;;0.85;;
29422;SDS011;16399;51.686;8.684;2022-12-29T00:55:56;0.75;;;0.40;;
29422;SDS011;16399;51.686;8.684;2022-12-29T00:59:02;2.58;;;0.60;;
29422;SDS011;16399;51.686;8.684;2022-12-29T01:02:06;0.70;;;0.40;;
29422;SDS011;16399;51.686;8.684;2022-12-29T01:05:09;1.85;;;1.12;;
29422;SDS011;16399;51.686;8.684;2022-12-29T01:08:12;3.45;;;0.80;;
29422;SDS011;16399;51.686;8.684;2022-12-29T01:11:14;1.98;;;0.60;;
29422;SDS011;16399;51.686;8.684;2022-12-29T01:14:17;1.55;;;0.62;;
29422;SDS011;16399;51.686;8.684;2022-12-29T01:17:20;1.42;;;0.60;;
29422;SDS011;16399;51.686;8.684;2022-12-29T01:20:22;1.42;;;0.50;;
29422;SDS011;16399;51.686;8.684;2022-12-29T01:23:24;1.37;;;0.62;;
29422;SDS011;16399;51.686;8.684;2022-12-29T01:26:27;0.98;;;0.50;;
29422;SDS011;16399;51.686;8.684;2022-12-29T01:29:29;1.72;;;0.70;;
29422;SDS011;16399;51.686;8.684;2022-12-29T01:32:31;4.80;;;0.70;;
29422;SDS011;16399;51.686;8.684;2022-12-29T01:35:33;3.00;;;0.65;;
29422;SDS011;16399;51.686;8.684;2022-12-29T01:38:37;1.02;;;0.68;;
29422;SDS011;16399;51.686;8.684;2022-12-29T01:41:39;1.25;;;0.70;;
29422;SDS011;16399;51.686;8.684;2022-12-29T01:44:55;1.55;;;0.75;;
29422;SDS011;16399;51.686;8.684;2022-12-29T01:48:01;1.22;;;0.55;;
29422;SDS011;16399;51.686;8.684;2022-12-29T01:51:05;1.10;;;0.50;;
29422;SDS011;16399;51.686;8.684;2022-12-29T01:54:16;0.75;;;0.30;;
29422;SDS011;16399;51.686;8.684;2022-12-29T01:57:20;3.60;;;0.57;;
29422;SDS011;16399;51.686;8.684;2022-12-29T02:00:24;1.22;;;0.53;;
29422;SDS011;16399;51.686;8.684;2022-12-29T02:03:27;0.90;;;0.40;;
29422;SDS011;16399;51.686;8.684;2022-12-29T02:06:38;0.47;;;0.40;;
29422;SDS011;16399;51.686;8.684;2022-12-29T02:09:48;2.50;;;0.50;;
29422;SDS011;16399;51.686;8.684;2022-12-29T02:12:52;2.20;;;0.40;;
29422;SDS011;16399;51.686;8.684;2022-12-29T02:15:59;1.87;;;0.47;;
29422;SDS011;16399;51.686;8.684;2022-12-29T02:32:29;1.98;;;0.47;;
29422;SDS011;16399;51.686;8.684;2022-12-29T02:39:15;0.47;;;0.30;;
29422;SDS011;16399;51.686;8.684;2022-12-29T02:45:41;1.07;;;0.30;;
29422;SDS011;16399;51.686;8.684;2022-12-29T02:48:51;1.07;;;0.42;;
29422;SDS011;16399;51.686;8.684;2022-12-29T02:52:26;0.50;;;0.40;;
29422;SDS011;16399;51.686;8.684;2022-12-29T02:55:16;1.20;;;0.50;;
29422;SDS011;16399;51.686;8.684;2022-12-29T02:58:22;0.78;;;0.40;;
29422;SDS011;16399;51.686;8.684;2022-12-29T03:11:25;0.35;;;0.20;;
29422;SDS011;16399;51.686;8.684;2022-12-29T03:15:04;1.00;;;0.42;;
29422;SDS011;16399;51.686;8.684;2022-12-29T03:18:29;0.30;;;0.30;;
29422;SDS011;16399;51.686;8.684;2022-12-29T03:21:35;0.28;;;0.20;;
29422;SDS011;16399;51.686;8.684;2022-12-29T03:25:08;0.50;;;0.33;;
29422;SDS011;16399;51.686;8.684;2022-12-29T03:28:19;0.75;;;0.37;;
29422;SDS011;16399;51.686;8.684;2022-12-29T03:31:20;0.40;;;0.30;;
29422;SDS011;16399;51.686;8.684;2022-12-29T03:34:25;0.65;;;0.40;;
29422;SDS011;16399;51.686;8.684;2022-12-29T03:37:37;1.22;;;0.40;;
29422;SDS011;16399;51.686;8.684;2022-12-29T03:40:43;1.62;;;0.50;;
29422;SDS011;16399;51.686;8.684;2022-12-29T03:43:47;0.85;;;0.50;;
29422;SDS011;16399;51.686;8.684;2022-12-29T03:46:50;2.00;;;0.50;;
29422;SDS011;16399;51.686;8.684;2022-12-29T03:49:53;2.85;;;0.75;;
29422;SDS011;16399;51.686;8.684;2022-12-29T03:52:55;0.80;;;0.40;;
29422;SDS011;16399;51.686;8.684;2022-12-29T03:55:57;1.22;;;0.50;;
29422;SDS011;16399;51.686;8.684;2022-12-29T03:59:00;0.47;;;0.30;;
29422;SDS011;16399;51.686;8.684;2022-12-29T04:02:02;1.40;;;0.40;;
29422;SDS011;16399;51.686;8.684;2022-12-29T04:05:05;0.93;;;0.50;;
29422;SDS011;16399;51.686;8.684;2022-12-29T04:08:07;3.87;;;0.60;;
29422;SDS011;16399;51.686;8.684;2022-12-29T04:11:10;0.70;;;0.40;;
29422;SDS011;16399;51.686;8.684;2022-12-29T04:14:12;3.72;;;0.53;;
29422;SDS011;16399;51.686;8.684;2022-12-29T04:17:14;0.85;;;0.50;;
29422;SDS011;16399;51.686;8.684;2022-12-29T04:20:17;1.62;;;0.60;;
29422;SDS011;16399;51.686;8.684;2022-12-29T04:23:37;1.50;;;0.55;;
29422;SDS011;16399;51.686;8.684;2022-12-29T04:26:40;0.37;;;0.20;;
29422;SDS011;16399;51.686;8.684;2022-12-29T04:29:42;0.85;;;0.50;;
29422;SDS011;16399;51.686;8.684;2022-12-29T04:32:45;2.17;;;0.68;;
29422;SDS011;16399;51.686;8.684;2022-12-29T04:35:47;1.52;;;0.50;;
29422;SDS011;16399;51.686;8.684;2022-12-29T04:38:50;1.32;;;0.50;;
29422;SDS011;16399;51.686;8.684;2022-12-29T04:41:52;0.65;;;0.50;;
29422;SDS011;16399;51.686;8.684;2022-12-29T04:44:54;0.75;;;0.33;;
29422;SDS011;16399;51.686;8.684;2022-12-29T04:47:57;0.75;;;0.35;;
29422;SDS011;16399;51.686;8.684;2022-12-29T04:50:59;0.65;;;0.50;;
29422;SDS011;16399;51.686;8.684;2022-12-29T04:54:01;0.42;;;0.35;;
29422;SDS011;16399;51.686;8.684;2022-12-29T04:57:04;0.82;;;0.30;;
29422;SDS011;16399;51.686;8.684;2022-12-29T05:00:06;1.65;;;0.30;;
29422;SDS011;16399;51.686;8.684;2022-12-29T05:03:09;0.62;;;0.37;;
29422;SDS011;16399;51.686;8.684;2022-12-29T05:06:12;0.78;;;0.40;;
29422;SDS011;16399;51.686;8.684;2022-12-29T05:09:14;1.45;;;0.37;;
29422;SDS011;16399;51.686;8.684;2022-12-29T05:12:16;1.65;;;0.30;;
29422;SDS011;16399;51.686;8.684;2022-12-29T05:15:19;0.30;;;0.30;;
29422;SDS011;16399;51.686;8.684;2022-12-29T05:18:21;0.90;;;0.60;;
29422;SDS011;16399;51.686;8.684;2022-12-29T05:21:24;0.60;;;0.40;;
29422;SDS011;16399;51.686;8.684;2022-12-29T05:24:26;0.40;;;0.20;;
29422;SDS011;16399;51.686;8.684;2022-12-29T05:27:28;1.42;;;0.40;;
29422;SDS011;16399;51.686;8.684;2022-12-29T05:30:30;0.30;;;0.20;;
29422;SDS011;16399;51.686;8.684;2022-12-29T05:33:33;0.33;;;0.20;;
29422;SDS011;16399;51.686;8.684;2022-12-29T05:36:35;0.50;;;0.30;;
29422;SDS011;16399;51.686;8.684;2022-12-29T05:39:37;0.90;;;0.42;;
29422;SDS011;16399;51.686;8.684;2022-12-29T05:42:40;1.17;;;0.20;;
29422;SDS011;16399;51.686;8.684;2022-12-29T05:45:42;1.05;;;0.30;;
29422;SDS011;16399;51.686;8.684;2022-12-29T05:48:44;1.40;;;0.40;;
29422;SDS011;16399;51.686;8.684;2022-12-29T05:51:47;1.17;;;0.40;;
29422;SDS011;16399;51.686;8.684;2022-12-29T05:54:49;1.45;;;0.40;;
29422;SDS011;16399;51.686;8.684;2022-12-29T05:57:51;0.30;;;0.20;;
29422;SDS011;16399;51.686;8.684;2022-12-29T06:00:54;2.15;;;0.40;;
29422;SDS011;16399;51.686;8.684;2022-12-29T06:03:56;0.62;;;0.30;;
29422;SDS011;16399;51.686;8.684;2022-12-29T06:06:58;1.57;;;0.60;;
29422;SDS011;16399;51.686;8.684;2022-12-29T06:10:00;2.77;;;0.40;;
29422;SDS011;16399;51.686;8.684;2022-12-29T06:13:03;0.40;;;0.30;;
29422;SDS011;16399;51.686;8.684;2022-12-29T06:16:06;3.72;;;0.50;;
29422;SDS011;16399;51.686;8.684;2022-12-29T06:19:08;4.72;;;0.72;;
29422;SDS011;16399;51.686;8.684;2022-12-29T06:22:11;1.42;;;0.98;;
29422;SDS011;16399;51.686;8.684;2022-12-29T06:25:13;0.80;;;0.35;;
29422;SDS011;16399;51.686;8.684;2022-12-29T06:28:16;0.78;;;0.35;;
29422;SDS011;16399;51.686;8.684;2022-12-29T06:31:18;0.28;;;0.28;;
29422;SDS011;16399;51.686;8.684;2022-12-29T06:34:21;0.45;;;0.30;;
29422;SDS011;16399;51.686;8.684;2022-12-29T06:37:23;0.95;;;0.37;;
29422;SDS011;16399;51.686;8.684;2022-12-29T06:40:25;2.47;;;0.55;;
29422;SDS011;16399;51.686;8.684;2022-12-29T06:43:28;1.52;;;0.53;;
29422;SDS011;16399;51.686;8.684;2022-12-29T06:46:31;1.90;;;0.55;;
29422;SDS011;16399;51.686;8.684;2022-12-29T06:49:33;0.75;;;0.33;;
29422;SDS011;16399;51.686;8.684;2022-12-29T06:52:35;1.00;;;0.40;;
29422;SDS011;16399;51.686;8.684;2022-12-29T06:55:37;0.62;;;0.40;;
29422;SDS011;16399;51.686;8.684;2022-12-29T06:58:40;1.10;;;0.50;;
29422;SDS011;16399;51.686;8.684;2022-12-29T07:01:42;0.98;;;0.30;;
29422;SDS011;16399;51.686;8.684;2022-12-29T07:04:44;1.45;;;0.40;;
29422;SDS011;16399;51.686;8.684;2022-12-29T07:07:47;0.93;;;0.30;;
29422;SDS011;16399;51.686;8.684;2022-12-29T07:10:49;1.32;;;0.40;;
29422;SDS011;16399;51.686;8.684;2022-12-29T07:13:51;0.72;;;0.40;;
29422;SDS011;16399;51.686;8.684;2022-12-29T07:16:54;1.30;;;0.42;;
29422;SDS011;16399;51.686;8.684;2022-12-29T07:19:56;1.15;;;0.50;;
29422;SDS011;16399;51.686;8.684;2022-12-29T07:22:58;0.98;;;0.45;;
29422;SDS011;16399;51.686;8.684;2022-12-29T07:26:01;0.68;;;0.30;;
29422;SDS011;16399;51.686;8.684;2022-12-29T07:29:04;0.80;;;0.37;;
29422;SDS011;16399;51.686;8.684;2022-12-29T07:32:07;1.57;;;0.42;;
29422;SDS011;16399;51.686;8.684;2022-12-29T07:35:09;0.93;;;0.50;;
29422;SDS011;16399;51.686;8.684;2022-12-29T07:38:11;1.20;;;0.40;;
29422;SDS011;16399;51.686;8.684;2022-12-29T07:41:14;1.27;;;0.50;;
29422;SDS011;16399;51.686;8.684;2022-12-29T07:44:16;0.90;;;0.40;;
29422;SDS011;16399;51.686;8.684;2022-12-29T07:47:18;0.37;;;0.30;;
29422;SDS011;16399;51.686;8.684;2022-12-29T07:50:21;0.57;;;0.40;;
29422;SDS011;16399;51.686;8.684;2022-12-29T07:53:23;1.15;;;0.50;;
29422;SDS011;16399;51.686;8.684;2022-12-29T07:56:25;1.17;;;0.50;;
29422;SDS011;16399;51.686;8.684;2022-12-29T07:59:28;2.67;;;0.40;;
29422;SDS011;16399;51.686;8.684;2022-12-29T08:02:30;0.30;;;0.30;;
29422;SDS011;16399;51.686;8.684;2022-12-29T08:05:33;2.25;;;0.35;;
29422;SDS011;16399;51.686;8.684;2022-12-29T08:08:35;1.22;;;0.40;;
29422;SDS011;16399;51.686;8.684;2022-12-29T08:11:38;1.05;;;0.30;;
29422;SDS011;16399;51.686;8.684;2022-12-29T08:14:40;2.95;;;0.70;;
29422;SDS011;16399;51.686;8.684;2022-12-29T08:17:43;0.95;;;0.30;;
29422;SDS011;16399;51.686;8.684;2022-12-29T08:20:45;0.65;;;0.20;;
29422;SDS011;16399;51.686;8.684;2022-12-29T08:23:47;1.62;;;0.40;;
29422;SDS011;16399;51.686;8.684;2022-12-29T08:26:50;1.77;;;0.62;;
29422;SDS011;16399;51.686;8.684;2022-12-29T08:29:52;2.62;;;0.53;;
29422;SDS011;16399;51.686;8.684;2022-12-29T08:32:54;2.33;;;0.60;;
29422;SDS011;16399;51.686;8.684;2022-12-29T08:36:05;2.08;;;0.57;;
29422;SDS011;16399;51.686;8.684;2022-12-29T08:39:04;2.42;;;0.50;;
29422;SDS011;16399;51.686;8.684;2022-12-29T08:42:06;1.67;;;0.68;;
29422;SDS011;16399;51.686;8.684;2022-12-29T08:45:09;2.60;;;0.70;;
29422;SDS011;16399;51.686;8.684;2022-12-29T08:48:11;2.85;;;0.62;;
29422;SDS011;16399;51.686;8.684;2022-12-29T08:51:14;2.15;;;0.45;;
29422;SDS011;16399;51.686;8.684;2022-12-29T08:54:17;3.22;;;0.65;;
29422;SDS011;16399;51.686;8.684;2022-12-29T08:57:19;1.32;;;0.57;;
29422;SDS011;16399;51.686;8.684;2022-12-29T09:00:22;1.65;;;0.40;;
29422;SDS011;16399;51.686;8.684;2022-12-29T09:03:24;0.75;;;0.33;;
29422;SDS011;16399;51.686;8.684;2022-12-29T09:06:27;2.12;;;0.40;;
29422;SDS011;16399;51.686;8.684;2022-12-29T09:09:29;0.47;;;0.30;;
29422;SDS011;16399;51.686;8.684;2022-12-29T09:12:31;2.58;;;0.50;;
29422;SDS011;16399;51.686;8.684;2022-12-29T09:15:34;1.47;;;0.40;;
29422;SDS011;16399;51.686;8.684;2022-12-29T09:18:36;2.00;;;0.50;;
29422;SDS011;16399;51.686;8.684;2022-12-29T09:21:39;1.45;;;0.45;;
29422;SDS011;16399;51.686;8.684;2022-12-29T09:24:41;0.88;;;0.40;;
29422;SDS011;16399;51.686;8.684;2022-12-29T09:27:44;2.25;;;0.57;;
29422;SDS011;16399;51.686;8.684;2022-12-29T09:30:48;1.62;;;0.35;;
29422;SDS011;16399;51.686;8.684;2022-12-29T09:33:51;0.75;;;0.40;;
29422;SDS011;16399;51.686;8.684;2022-12-29T09:36:53;1.67;;;0.42;;
29422;SDS011;16399;51.686;8.684;2022-12-29T09:39:56;0.72;;;0.50;;
29422;SDS011;16399;51.686;8.684;2022-12-29T09:43:08;3.40;;;0.80;;
29422;SDS011;16399;51.686;8.684;2022-12-29T09:52:40;1.92;;;0.80;;
29422;SDS011;16399;51.686;8.684;2022-12-29T09:55:50;3.75;;;0.90;;
29422;SDS011;16399;51.686;8.684;2022-12-29T09:58:55;1.95;;;0.53;;
29422;SDS011;16399;51.686;8.684;2022-12-29T10:14:53;3.58;;;0.72;;
29422;SDS011;16399;51.686;8.684;2022-12-29T10:21:18;1.67;;;0.60;;
29422;SDS011;16399;51.686;8.684;2022-12-29T10:24:32;4.42;;;0.75;;
29422;SDS011;16399;51.686;8.684;2022-12-29T10:27:37;1.85;;;0.60;;
29422;SDS011;16399;51.686;8.684;2022-12-29T10:30:40;4.35;;;0.80;;
29422;SDS011;16399;51.686;8.684;2022-12-29T10:33:44;2.22;;;0.70;;
29422;SDS011;16399;51.686;8.684;2022-12-29T10:36:46;4.55;;;0.93;;
29422;SDS011;16399;51.686;8.684;2022-12-29T10:39:52;3.35;;;0.90;;
29422;SDS011;16399;51.686;8.684;2022-12-29T10:42:56;3.80;;;0.90;;
29422;SDS011;16399;51.686;8.684;2022-12-29T10:46:04;2.47;;;0.75;;
29422;SDS011;16399;51.686;8.684;2022-12-29T10:49:11;3.08;;;0.88;;
29422;SDS011;16399;51.686;8.684;2022-12-29T10:52:13;3.33;;;0.78;;
29422;SDS011;16399;51.686;8.684;2022-12-29T10:55:22;7.45;;;1.00;;
29422;SDS011;16399;51.686;8.684;2022-12-29T10:58:28;3.35;;;0.80;;
29422;SDS011;16399;51.686;8.684;2022-12-29T11:01:39;4.65;;;0.80;;
29422;SDS011;16399;51.686;8.684;2022-12-29T11:04:41;2.12;;;0.60;;
29422;SDS011;16399;51.686;8.684;2022-12-29T11:07:49;3.83;;;0.80;;
29422;SDS011;16399;51.686;8.684;2022-12-29T11:11:00;5.15;;;0.78;;
29422;SDS011;16399;51.686;8.684;2022-12-29T11:14:16;1.50;;;0.65;;
29422;SDS011;16399;51.686;8.684;2022-12-29T11:17:21;2.40;;;0.78;;
29422;SDS011;16399;51.686;8.684;2022-12-29T11:20:34;4.78;;;1.15;;
29422;SDS011;16399;51.686;8.684;2022-12-29T11:26:43;4.37;;;0.98;;
29422;SDS011;16399;51.686;8.684;2022-12-29T11:29:46;2.63;;;0.77;;
29422;SDS011;16399;51.686;8.684;2022-12-29T11:32:52;3.05;;;0.75;;
29422;SDS011;16399;51.686;8.684;2022-12-29T11:36:01;4.08;;;1.15;;
29422;SDS011;16399;51.686;8.684;2022-12-29T11:39:16;3.22;;;0.80;;
29422;SDS011;16399;51.686;8.684;2022-12-29T11:42:16;4.85;;;1.27;;
29422;SDS011;16399;51.686;8.684;2022-12-29T11:45:24;3.83;;;0.98;;
29422;SDS011;16399;51.686;8.684;2022-12-29T11:48:31;6.37;;;1.00;;
29422;SDS011;16399;51.686;8.684;2022-12-29T11:51:46;4.28;;;1.20;;
29422;SDS011;16399;51.686;8.684;2022-12-29T11:54:50;4.20;;;0.93;;
29422;SDS011;16399;51.686;8.684;2022-12-29T11:57:55;4.47;;;1.05;;
29422;SDS011;16399;51.686;8.684;2022-12-29T12:01:16;5.28;;;1.10;;
29422;SDS011;16399;51.686;8.684;2022-12-29T12:04:28;4.37;;;0.95;;
29422;SDS011;16399;51.686;8.684;2022-12-29T12:08:17;5.60;;;0.80;;
29422;SDS011;16399;51.686;8.684;2022-12-29T12:10:48;4.08;;;0.72;;
29422;SDS011;16399;51.686;8.684;2022-12-29T12:14:01;4.90;;;0.80;;
29422;SDS011;16399;51.686;8.684;2022-12-29T12:17:08;4.92;;;1.20;;
29422;SDS011;16399;51.686;8.684;2022-12-29T12:20:18;3.65;;;0.90;;
29422;SDS011;16399;51.686;8.684;2022-12-29T12:23:30;3.15;;;0.80;;
29422;SDS011;16399;51.686;8.684;2022-12-29T12:26:34;3.37;;;1.15;;
29422;SDS011;16399;51.686;8.684;2022-12-29T12:29:41;6.53;;;0.93;;
29422;SDS011;16399;51.686;8.684;2022-12-29T12:32:45;5.65;;;1.32;;
29422;SDS011;16399;51.686;8.684;2022-12-29T12:46:31;5.08;;;0.98;;
29422;SDS011;16399;51.686;8.684;2022-12-29T12:53:13;2.83;;;0.98;;
29422;SDS011;16399;51.686;8.684;2022-12-29T12:56:26;4.33;;;1.27;;
29422;SDS011;16399;51.686;8.684;2022-12-29T13:02:59;4.58;;;1.17;;
29422;SDS011;16399;51.686;8.684;2022-12-29T13:09:29;4.83;;;1.10;;
29422;SDS011;16399;51.686;8.684;2022-12-29T13:12:50;3.75;;;0.90;;
29422;SDS011;16399;51.686;8.684;2022-12-29T13:15:55;5.50;;;1.27;;
29422;SDS011;16399;51.686;8.684;2022-12-29T13:18:59;7.65;;;1.47;;
29422;SDS011;16399;51.686;8.684;2022-12-29T13:22:08;5.65;;;1.20;;
29422;SDS011;16399;51.686;8.684;2022-12-29T13:25:36;2.85;;;1.10;;
29422;SDS011;16399;51.686;8.684;2022-12-29T13:28:55;5.85;;;1.07;;
29422;SDS011;16399;51.686;8.684;2022-12-29T13:32:20;4.85;;;1.32;;
29422;SDS011;16399;51.686;8.684;2022-12-29T13:38:51;4.55;;;1.15;;
29422;SDS011;16399;51.686;8.684;2022-12-29T13:41:52;6.85;;;1.37;;
29422;SDS011;16399;51.686;8.684;2022-12-29T13:48:19;4.70;;;1.05;;
29422;SDS011;16399;51.686;8.684;2022-12-29T13:51:22;6.20;;;1.07;;
29422;SDS011;16399;51.686;8.684;2022-12-29T13:54:27;2.92;;;0.90;;
29422;SDS011;16399;51.686;8.684;2022-12-29T14:04:21;2.75;;;0.90;;
29422;SDS011;16399;51.686;8.684;2022-12-29T14:07:26;6.10;;;1.40;;
29422;SDS011;16399;51.686;8.684;2022-12-29T14:10:34;2.98;;;0.80;;
29422;SDS011;16399;51.686;8.684;2022-12-29T14:13:39;3.98;;;0.93;;
29422;SDS011;16399;51.686;8.684;2022-12-29T14:16:44;7.03;;;1.32;;
29422;SDS011;16399;51.686;8.684;2022-12-29T14:19:47;6.95;;;1.40;;
29422;SDS011;16399;51.686;8.684;2022-12-29T14:22:59;6.65;;;1.42;;
29422;SDS011;16399;51.686;8.684;2022-12-29T14:35:42;7.67;;;1.30;;
29422;SDS011;16399;51.686;8.684;2022-12-29T14:38:48;7.53;;;1.20;;
29422;SDS011;16399;51.686;8.684;2022-12-29T14:41:59;5.60;;;1.20;;
29422;SDS011;16399;51.686;8.684;2022-12-29T14:45:21;4.85;;;1.10;;
29422;SDS011;16399;51.686;8.684;2022-12-29T14:48:29;5.47;;;1.30;;
29422;SDS011;16399;51.686;8.684;2022-12-29T14:51:34;9.00;;;1.20;;
29422;SDS011;16399;51.686;8.684;2022-12-29T14:57:49;9.68;;;1.80;;
29422;SDS011;16399;51.686;8.684;2022-12-29T15:00:54;4.58;;;1.12;;
29422;SDS011;16399;51.686;8.684;2022-12-29T15:03:57;4.58;;;0.90;;
29422;SDS011;16399;51.686;8.684;2022-12-29T15:07:02;10.90;;;1.50;;
29422;SDS011;16399;51.686;8.684;2022-12-29T15:10:11;3.37;;;1.27;;
29422;SDS011;16399;51.686;8.684;2022-12-29T15:13:21;13.83;;;1.55;;
29422;SDS011;16399;51.686;8.684;2022-12-29T15:19:29;5.40;;;1.30;;
29422;SDS011;16399;51.686;8.684;2022-12-29T15:22:31;6.42;;;1.25;;
29422;SDS011;16399;51.686;8.684;2022-12-29T15:25:33;5.55;;;1.30;;
29422;SDS011;16399;51.686;8.684;2022-12-29T15:28:41;7.60;;;1.67;;
29422;SDS011;16399;51.686;8.684;2022-12-29T15:31:46;6.58;;;1.52;;
29422;SDS011;16399;51.686;8.684;2022-12-29T15:34:50;6.22;;;1.30;;
29422;SDS011;16399;51.686;8.684;2022-12-29T15:37:54;4.42;;;1.20;;
29422;SDS011;16399;51.686;8.684;2022-12-29T15:41:02;8.83;;;1.35;;
29422;SDS011;16399;51.686;8.684;2022-12-29T15:44:14;4.50;;;0.98;;
29422;SDS011;16399;51.686;8.684;2022-12-29T15:47:21;4.40;;;1.05;;
29422;SDS011;16399;51.686;8.684;2022-12-29T15:50:27;5.58;;;1.65;;
29422;SDS011;16399;51.686;8.684;2022-12-29T15:53:31;3.47;;;0.90;;
29422;SDS011;16399;51.686;8.684;2022-12-29T15:56:34;4.67;;;1.07;;
29422;SDS011;16399;51.686;8.684;2022-12-29T15:59:45;5.70;;;1.40;;
29422;SDS011;16399;51.686;8.684;2022-12-29T16:02:42;5.15;;;1.42;;
29422;SDS011;16399;51.686;8.684;2022-12-29T16:05:49;3.22;;;0.78;;
29422;SDS011;16399;51.686;8.684;2022-12-29T16:12:17;4.62;;;0.75;;
29422;SDS011;16399;51.686;8.684;2022-12-29T16:15:22;3.80;;;1.07;;
29422;SDS011;16399;51.686;8.684;2022-12-29T16:18:28;4.83;;;0.72;;
29422;SDS011;16399;51.686;8.684;2022-12-29T16:21:32;3.98;;;0.80;;
29422;SDS011;16399;51.686;8.684;2022-12-29T16:27:40;3.80;;;1.42;;
29422;SDS011;16399;51.686;8.684;2022-12-29T16:30:43;6.73;;;1.07;;
29422;SDS011;16399;51.686;8.684;2022-12-29T16:33:55;4.05;;;0.95;;
29422;SDS011;16399;51.686;8.684;2022-12-29T16:37:04;4.35;;;1.05;;
29422;SDS011;16399;51.686;8.684;2022-12-29T16:40:27;3.58;;;1.00;;
29422;SDS011;16399;51.686;8.684;2022-12-29T16:43:32;5.78;;;1.55;;
29422;SDS011;16399;51.686;8.684;2022-12-29T16:46:55;4.92;;;1.57;;
29422;SDS011;16399;51.686;8.684;2022-12-29T16:50:12;3.12;;;1.00;;
29422;SDS011;16399;51.686;8.684;2022-12-29T16:53:25;5.75;;;1.75;;
29422;SDS011;16399;51.686;8.684;2022-12-29T16:56:35;4.35;;;1.25;;
29422;SDS011;16399;51.686;8.684;2022-12-29T16:59:39;3.80;;;1.00;;
29422;SDS011;16399;51.686;8.684;2022-12-29T17:02:45;1.57;;;0.50;;
29422;SDS011;16399;51.686;8.684;2022-12-29T17:05:50;4.85;;;0.90;;
29422;SDS011;16399;51.686;8.684;2022-12-29T17:08:52;4.22;;;0.70;;
29422;SDS011;16399;51.686;8.684;2022-12-29T17:11:55;6.20;;;0.80;;
29422;SDS011;16399;51.686;8.684;2022-12-29T17:15:01;2.77;;;0.72;;
29422;SDS011;16399;51.686;8.684;2022-12-29T17:18:09;3.80;;;1.00;;
29422;SDS011;16399;51.686;8.684;2022-12-29T17:21:12;3.92;;;0.80;;
29422;SDS011;16399;51.686;8.684;2022-12-29T17:24:15;5.25;;;1.10;;
29422;SDS011;16399;51.686;8.684;2022-12-29T17:27:20;6.63;;;1.37;;
29422;SDS011;16399;51.686;8.684;2022-12-29T17:30:24;3.62;;;0.80;;
29422;SDS011;16399;51.686;8.684;2022-12-29T17:33:29;6.17;;;1.92;;
29422;SDS011;16399;51.686;8.684;2022-12-29T17:36:34;6.50;;;1.42;;
29422;SDS011;16399;51.686;8.684;2022-12-29T17:39:36;3.22;;;0.62;;
29422;SDS011;16399;51.686;8.684;2022-12-29T17:42:41;7.22;;;1.55;;
29422;SDS011;16399;51.686;8.684;2022-12-29T17:45:44;6.95;;;1.22;;
29422;SDS011;16399;51.686;8.684;2022-12-29T17:48:49;5.65;;;1.00;;
29422;SDS011;16399;51.686;8.684;2022-12-29T17:51:51;3.40;;;0.90;;
29422;SDS011;16399;51.686;8.684;2022-12-29T17:54:54;7.35;;;1.05;;
29422;SDS011;16399;51.686;8.684;2022-12-29T17:57:56;5.97;;;1.00;;
29422;SDS011;16399;51.686;8.684;2022-12-29T18:00:59;1.70;;;0.60;;
29422;SDS011;16399;51.686;8.684;2022-12-29T18:04:03;4.33;;;1.15;;
29422;SDS011;16399;51.686;8.684;2022-12-29T18:07:08;6.55;;;0.80;;
29422;SDS011;16399;51.686;8.684;2022-12-29T18:10:10;6.50;;;1.65;;
29422;SDS011;16399;51.686;8.684;2022-12-29T18:13:35;6.60;;;1.10;;
29422;SDS011;16399;51.686;8.684;2022-12-29T18:16:25;5.08;;;0.95;;
29422;SDS011;16399;51.686;8.684;2022-12-29T18:19:27;3.17;;;0.65;;
29422;SDS011;16399;51.686;8.684;2022-12-29T18:22:30;5.35;;;1.07;;
29422;SDS011;16399;51.686;8.684;2022-12-29T18:25:38;9.45;;;1.55;;
29422;SDS011;16399;51.686;8.684;2022-12-29T18:28:43;8.15;;;1.60;;
29422;SDS011;16399;51.686;8.684;2022-12-29T18:31:47;6.60;;;1.20;;
29422;SDS011;16399;51.686;8.684;2022-12-29T18:34:50;4.53;;;1.27;;
29422;SDS011;16399;51.686;8.684;2022-12-29T18:37:52;6.60;;;1.42;;
29422;SDS011;16399;51.686;8.684;2022-12-29T18:40:54;5.50;;;0.90;;
29422;SDS011;16399;51.686;8.684;2022-12-29T18:43:58;4.08;;;0.93;;
29422;SDS011;16399;51.686;8.684;2022-12-29T18:47:00;8.18;;;1.62;;
29422;SDS011;16399;51.686;8.684;2022-12-29T18:50:03;4.15;;;1.10;;
29422;SDS011;16399;51.686;8.684;2022-12-29T18:53:05;8.58;;;1.22;;
29422;SDS011;16399;51.686;8.684;2022-12-29T18:56:09;7.97;;;1.30;;
29422;SDS011;16399;51.686;8.684;2022-12-29T18:59:11;9.15;;;1.52;;
29422;SDS011;16399;51.686;8.684;2022-12-29T19:02:16;6.17;;;1.47;;
29422;SDS011;16399;51.686;8.684;2022-12-29T19:05:23;9.45;;;1.40;;
29422;SDS011;16399;51.686;8.684;2022-12-29T19:08:30;4.78;;;1.30;;
29422;SDS011;16399;51.686;8.684;2022-12-29T19:11:32;4.55;;;1.20;;
29422;SDS011;16399;51.686;8.684;2022-12-29T19:14:34;10.30;;;1.65;;
29422;SDS011;16399;51.686;8.684;2022-12-29T19:17:37;7.67;;;1.40;;
29422;SDS011;16399;51.686;8.684;2022-12-29T19:20:40;10.53;;;1.47;;
29422;SDS011;16399;51.686;8.684;2022-12-29T19:23:43;14.33;;;1.80;;
29422;SDS011;16399;51.686;8.684;2022-12-29T19:26:45;6.22;;;1.15;;
29422;SDS011;16399;51.686;8.684;2022-12-29T19:29:49;4.50;;;1.10;;
29422;SDS011;16399;51.686;8.684;2022-12-29T19:32:51;3.87;;;0.80;;
29422;SDS011;16399;51.686;8.684;2022-12-29T19:39:01;7.65;;;0.80;;
29422;SDS011;16399;51.686;8.684;2022-12-29T19:42:03;5.08;;;0.98;;
29422;SDS011;16399;51.686;8.684;2022-12-29T19:45:06;6.62;;;1.07;;
29422;SDS011;16399;51.686;8.684;2022-12-29T19:48:18;5.20;;;1.20;;
29422;SDS011;16399;51.686;8.684;2022-12-29T19:51:17;5.92;;;1.02;;
29422;SDS011;16399;51.686;8.684;2022-12-29T19:54:20;4.53;;;1.37;;
29422;SDS011;16399;51.686;8.684;2022-12-29T19:57:22;5.87;;;1.40;;
29422;SDS011;16399;51.686;8.684;2022-12-29T20:00:25;6.92;;;1.65;;
29422;SDS011;16399;51.686;8.684;2022-12-29T20:03:27;6.47;;;1.70;;
29422;SDS011;16399;51.686;8.684;2022-12-29T20:06:30;7.35;;;1.92;;
29422;SDS011;16399;51.686;8.684;2022-12-29T20:09:32;8.48;;;1.92;;
29422;SDS011;16399;51.686;8.684;2022-12-29T20:12:34;8.95;;;1.47;;
29422;SDS011;16399;51.686;8.684;2022-12-29T20:15:41;10.70;;;1.72;;
29422;SDS011;16399;51.686;8.684;2022-12-29T20:18:43;6.08;;;1.47;;
29422;SDS011;16399;51.686;8.684;2022-12-29T20:21:47;10.48;;;1.80;;
29422;SDS011;16399;51.686;8.684;2022-12-29T20:24:49;6.30;;;1.77;;
29422;SDS011;16399;51.686;8.684;2022-12-29T20:27:51;9.33;;;2.10;;
29422;SDS011;16399;51.686;8.684;2022-12-29T20:30:55;6.42;;;1.85;;
29422;SDS011;16399;51.686;8.684;2022-12-29T20:34:00;8.83;;;2.00;;
29422;SDS011;16399;51.686;8.684;2022-12-29T20:37:03;8.85;;;1.82;;